A80 TRACON Summary / KATL TAF
ATL TRACON Summary:
A Low pressure system over the Great Lakes will continue to track to the northeast and an associated cold front is expected to pass through N GA later this afternoon. Expect drier conditions as the afternoon progresses with VFR conditions. Surface winds will be west southwest at 15-20kts and transition to the northwest at 10kts after 00z. Flight Hazards: Expect LGT-MOD Turbulence below 120 in the TRACON airspace.

Updated: 11/24/2014 12:20 PM
ATL Terminal Aerodrome Forecast:

FTUS80 KATL 242206 AAA
KATL 242205Z 2422/2524 26010KT P6SM FEW050 SCT250
     FM250000 30010KT P6SM SCT080
     FM251500 33007KT P6SM BKN120
     FM252100 30007KT P6SM OVC080
ATL TRACON Area Remark:
NONE.
Convective Gate Forecast / Icing Gate Forecast / Vertical Wind Profile (click on image to enlarge)
Convective Gate Forecast
Icing Gate Forecast

table with gate forecasts (convective and CCFP) used April - November while icing gate forecasts are issued

AIRMETs & SIGMETS/ Southeast Radar loop / Satellite Image (click on image to enlarge)

Southeast Radar Loop

 



USA.gov is the U.S. government's official web portal to all federal, state and local government web resources and services.